createdAt,value
2024-04-25T00:00:36.582Z,25.24
2024-04-25T00:01:26.520Z,25.24
2024-04-25T00:02:26.581Z,25.23
2024-04-25T00:03:26.759Z,25.23
2024-04-25T00:04:26.587Z,25.23
2024-04-25T00:05:26.579Z,25.24
2024-04-25T00:06:26.512Z,25.26
2024-04-25T00:07:26.529Z,25.23
2024-04-25T00:08:26.586Z,25.20
2024-04-25T00:09:26.519Z,25.23
2024-04-25T00:10:26.545Z,25.21
2024-04-25T00:11:26.631Z,25.21
2024-04-25T00:12:26.521Z,25.21
2024-04-25T00:13:26.548Z,25.21
2024-04-25T00:14:26.540Z,25.20
2024-04-25T00:15:26.549Z,25.19
2024-04-25T00:16:26.540Z,25.20
2024-04-25T00:17:26.541Z,25.21
2024-04-25T00:18:26.545Z,25.23
2024-04-25T00:19:26.545Z,25.21
2024-04-25T00:20:26.590Z,25.23
2024-04-25T00:21:26.603Z,25.21
2024-04-25T00:22:26.608Z,25.19
2024-04-25T00:23:26.632Z,25.19
2024-04-25T00:24:26.570Z,25.21
2024-04-25T00:25:26.593Z,25.20
2024-04-25T00:26:26.654Z,25.20
2024-04-25T00:27:26.638Z,25.17
2024-04-25T00:28:26.626Z,25.20
2024-04-25T00:29:26.660Z,25.19
2024-04-25T00:30:26.672Z,25.20
2024-04-25T00:31:26.625Z,25.19
2024-04-25T00:32:26.727Z,25.19
2024-04-25T00:33:26.667Z,25.17
2024-04-25T00:34:26.603Z,25.17
2024-04-25T00:35:31.692Z,25.16
2024-04-25T00:36:26.621Z,25.17
2024-04-25T00:37:26.624Z,25.17
2024-04-25T00:38:26.640Z,25.16
2024-04-25T00:39:26.605Z,25.14
2024-04-25T00:40:26.628Z,25.17
2024-04-25T00:41:26.670Z,25.16
2024-04-25T00:42:26.641Z,25.14
2024-04-25T00:43:26.649Z,25.14
2024-04-25T00:44:26.675Z,25.16
2024-04-25T00:45:36.742Z,25.20
2024-04-25T00:46:26.647Z,25.16
2024-04-25T00:47:26.761Z,25.16
2024-04-25T00:48:26.743Z,25.16
2024-04-25T00:49:26.642Z,25.13
2024-04-25T00:50:26.695Z,25.16
2024-04-25T00:51:26.651Z,25.16
2024-04-25T00:52:26.655Z,25.16
2024-04-25T00:53:26.696Z,25.16
2024-04-25T00:54:26.639Z,25.16
2024-04-25T00:55:26.687Z,25.13
2024-04-25T00:56:26.726Z,25.14
2024-04-25T00:57:26.678Z,25.16
2024-04-25T00:58:26.671Z,25.14
2024-04-25T00:59:26.712Z,25.14
2024-04-25T01:00:26.673Z,25.13
2024-04-25T01:01:26.682Z,25.13
2024-04-25T01:02:26.723Z,25.14
2024-04-25T01:03:26.718Z,25.14
2024-04-25T01:04:26.811Z,25.13
2024-04-25T01:05:26.736Z,25.11
2024-04-25T01:06:26.700Z,25.13
2024-04-25T01:07:26.690Z,25.13
2024-04-25T01:08:26.738Z,25.10
2024-04-25T01:09:26.720Z,25.11
2024-04-25T01:10:26.690Z,25.11
2024-04-25T01:11:26.761Z,25.10
2024-04-25T01:12:26.694Z,25.13
2024-04-25T01:13:26.696Z,25.09
2024-04-25T01:14:26.717Z,25.13
2024-04-25T01:15:26.681Z,25.10
2024-04-25T01:16:26.699Z,25.10
2024-04-25T01:17:26.704Z,25.11
2024-04-25T01:18:26.763Z,25.10
2024-04-25T01:19:26.728Z,25.10
2024-04-25T01:20:26.744Z,25.11
2024-04-25T01:21:26.789Z,25.09
2024-04-25T01:22:26.849Z,25.07
2024-04-25T01:23:26.963Z,25.09
2024-04-25T01:24:27.001Z,25.09
2024-04-25T01:25:27.098Z,25.10
2024-04-25T01:26:27.172Z,25.10
2024-04-25T01:27:27.246Z,25.10
2024-04-25T01:28:27.310Z,25.07
2024-04-25T01:29:27.399Z,25.09
2024-04-25T01:30:27.455Z,25.07
2024-04-25T01:31:27.533Z,25.11
2024-04-25T01:32:27.777Z,25.07
2024-04-25T01:33:27.759Z,25.09
2024-04-25T01:34:27.808Z,25.09
2024-04-25T01:35:27.874Z,25.07
2024-04-25T01:36:27.922Z,25.06
2024-04-25T01:37:28.014Z,25.09
2024-04-25T01:38:28.107Z,25.07
2024-04-25T01:39:28.197Z,25.07
2024-04-25T01:40:28.296Z,25.09
2024-04-25T01:41:28.360Z,25.06
2024-04-25T01:42:28.439Z,25.07
2024-04-25T01:43:28.500Z,25.09
2024-04-25T01:44:28.624Z,25.06
2024-04-25T01:45:28.659Z,25.06
2024-04-25T01:46:28.745Z,25.07
2024-04-25T01:47:28.972Z,25.07
2024-04-25T01:48:29.059Z,25.05
2024-04-25T01:49:28.981Z,25.07
2024-04-25T01:50:29.091Z,25.06
2024-04-25T01:51:29.152Z,25.06
2024-04-25T01:52:29.219Z,25.09
2024-04-25T01:53:29.394Z,25.07
2024-04-25T01:54:29.379Z,25.06
2024-04-25T01:55:29.470Z,25.06
2024-04-25T01:56:29.587Z,25.06
2024-04-25T01:57:29.672Z,25.06
2024-04-25T01:58:29.700Z,25.05
2024-04-25T01:59:29.818Z,25.05
2024-04-25T02:00:29.880Z,25.05
2024-04-25T02:01:29.985Z,25.06
2024-04-25T02:02:30.107Z,25.03
2024-04-25T02:03:30.136Z,25.05
2024-04-25T02:04:30.204Z,25.05
2024-04-25T02:05:30.358Z,25.06
2024-04-25T02:06:51.420Z,25.05
2024-04-25T02:07:30.383Z,25.05
2024-04-25T02:08:30.407Z,25.03
2024-04-25T02:09:30.386Z,25.05
2024-04-25T02:10:32.794Z,25.03
2024-04-25T02:11:30.415Z,25.05
2024-04-25T02:12:30.440Z,25.02
2024-04-25T02:13:30.470Z,25.02
2024-04-25T02:14:30.489Z,25.03
2024-04-25T02:15:30.500Z,25.03
2024-04-25T02:16:30.514Z,25.03
2024-04-25T02:17:30.691Z,25.00
2024-04-25T02:18:30.645Z,25.03
2024-04-25T02:19:30.599Z,25.02
2024-04-25T02:20:30.666Z,25.03
2024-04-25T02:21:30.670Z,25.02
2024-04-25T02:22:30.686Z,25.02
2024-04-25T02:23:30.748Z,25.00
2024-04-25T02:24:30.747Z,25.02
2024-04-25T02:25:33.250Z,25.02
2024-04-25T02:26:30.897Z,24.99
2024-04-25T02:27:30.880Z,25.00
2024-04-25T02:28:30.939Z,24.99
2024-04-25T02:29:30.955Z,25.00
2024-04-25T02:30:33.212Z,25.00
2024-04-25T02:31:31.013Z,25.02
2024-04-25T02:32:31.139Z,25.00
2024-04-25T02:33:31.084Z,25.02
2024-04-25T02:34:31.181Z,24.99
2024-04-25T02:35:31.297Z,24.99
2024-04-25T02:36:31.358Z,24.99
2024-04-25T02:37:31.456Z,25.00
2024-04-25T02:38:31.570Z,24.97
2024-04-25T02:39:31.604Z,25.00
2024-04-25T02:40:31.682Z,24.99
2024-04-25T02:41:31.789Z,24.99
2024-04-25T02:42:31.842Z,25.00
2024-04-25T02:43:32.004Z,24.97
2024-04-25T02:44:32.033Z,24.97
2024-04-25T02:45:32.104Z,24.99
2024-04-25T02:46:32.195Z,24.97
2024-04-25T02:47:32.335Z,24.99
2024-04-25T02:48:32.401Z,24.97
2024-04-25T02:49:32.432Z,24.96
2024-04-25T02:50:32.565Z,24.99
2024-04-25T02:51:32.589Z,24.97
2024-04-25T02:52:32.686Z,24.99
2024-04-25T02:53:32.953Z,24.96
2024-04-25T02:54:32.844Z,24.99
2024-04-25T02:55:32.956Z,24.96
2024-04-25T02:56:33.020Z,24.96
2024-04-25T02:57:33.108Z,24.97
2024-04-25T02:58:33.178Z,24.97
2024-04-25T02:59:33.311Z,24.97
2024-04-25T03:00:39.267Z,24.96
2024-04-25T03:01:33.361Z,24.94
2024-04-25T03:02:33.484Z,24.94
2024-04-25T03:03:33.493Z,24.96
2024-04-25T03:04:33.368Z,24.93
2024-04-25T03:05:33.440Z,24.93
2024-04-25T03:06:33.371Z,24.93
2024-04-25T03:07:33.357Z,24.92
2024-04-25T03:08:33.395Z,24.94
2024-04-25T03:09:33.368Z,24.92
2024-04-25T03:10:33.364Z,24.94
2024-04-25T03:11:33.399Z,24.93
2024-04-25T03:12:33.373Z,24.92
2024-04-25T03:13:34.275Z,24.94
2024-04-25T03:14:33.493Z,24.92
2024-04-25T03:15:33.561Z,24.94
2024-04-25T03:16:33.631Z,24.93
2024-04-25T03:17:33.924Z,24.92
2024-04-25T03:18:33.773Z,24.94
2024-04-25T03:19:33.744Z,24.94
2024-04-25T03:20:33.810Z,24.93
2024-04-25T03:21:33.926Z,24.92
2024-04-25T03:22:33.864Z,24.92
2024-04-25T03:23:33.999Z,24.92
2024-04-25T03:24:34.070Z,24.94
2024-04-25T03:25:39.219Z,24.93
2024-04-25T03:26:34.199Z,24.93
2024-04-25T03:27:34.206Z,24.93
2024-04-25T03:28:34.193Z,24.93
2024-04-25T03:29:34.273Z,24.92
2024-04-25T03:30:34.226Z,24.89
2024-04-25T03:31:34.222Z,24.93
2024-04-25T03:32:34.265Z,24.90
2024-04-25T03:33:34.272Z,24.93
2024-04-25T03:34:34.341Z,24.92
2024-04-25T03:35:34.449Z,24.89
2024-04-25T03:36:34.498Z,24.90
2024-04-25T03:37:34.650Z,24.87
2024-04-25T03:38:34.685Z,24.89
2024-04-25T03:39:34.765Z,24.90
2024-04-25T03:40:44.886Z,24.90
2024-04-25T03:41:34.903Z,24.89
2024-04-25T03:42:34.853Z,24.89
2024-04-25T03:43:34.856Z,24.89
2024-04-25T03:44:34.971Z,24.89
2024-04-25T03:45:34.875Z,24.87
2024-04-25T03:46:34.877Z,24.89
2024-04-25T03:47:35.025Z,24.92
2024-04-25T03:48:34.929Z,24.86
2024-04-25T03:49:34.885Z,24.89
2024-04-25T03:50:34.948Z,24.87
2024-04-25T03:51:34.864Z,24.87
2024-04-25T03:52:34.874Z,24.87
2024-04-25T03:53:34.912Z,24.87
2024-04-25T03:54:34.878Z,24.86
2024-04-25T03:55:34.878Z,24.85
2024-04-25T03:56:34.951Z,24.86
2024-04-25T03:57:34.910Z,24.87
2024-04-25T03:58:34.919Z,24.85
2024-04-25T03:59:34.952Z,24.86
2024-04-25T04:00:34.932Z,24.87
2024-04-25T04:01:34.935Z,24.87
2024-04-25T04:02:34.979Z,24.87
2024-04-25T04:03:34.974Z,24.87
2024-04-25T04:04:34.950Z,24.89
2024-04-25T04:05:35.005Z,24.87
2024-04-25T04:06:34.968Z,24.86
2024-04-25T04:07:34.948Z,24.86
2024-04-25T04:08:34.991Z,24.86
2024-04-25T04:09:34.952Z,24.85
2024-04-25T04:10:34.962Z,24.86
2024-04-25T04:11:35.024Z,24.85
2024-04-25T04:12:34.959Z,24.85
2024-04-25T04:13:34.958Z,24.85
2024-04-25T04:14:35.037Z,24.87
2024-04-25T04:15:34.975Z,24.83
2024-04-25T04:16:35.081Z,24.86
2024-04-25T04:17:35.294Z,24.86
2024-04-25T04:18:35.263Z,24.89
2024-04-25T04:19:35.374Z,24.86
2024-04-25T04:20:35.517Z,24.85
2024-04-25T04:21:35.530Z,24.85
2024-04-25T04:22:35.589Z,24.86
2024-04-25T04:23:35.730Z,24.86
2024-04-25T04:24:35.782Z,24.85
2024-04-25T04:25:35.862Z,24.85
2024-04-25T04:26:36.051Z,24.83
2024-04-25T04:27:36.038Z,24.83
2024-04-25T04:28:36.132Z,24.83
2024-04-25T04:29:36.257Z,24.83
2024-04-25T04:30:36.349Z,24.83
2024-04-25T04:31:43.942Z,24.78
2024-04-25T04:32:44.018Z,24.81
2024-04-25T04:33:44.098Z,24.83
2024-04-25T04:34:43.948Z,24.82
2024-04-25T04:35:43.980Z,24.79
2024-04-25T04:36:43.940Z,24.82
2024-04-25T04:37:43.948Z,24.82
2024-04-25T04:38:43.998Z,24.82
2024-04-25T04:39:43.948Z,24.83
2024-04-25T04:40:43.961Z,24.83
2024-04-25T04:41:43.980Z,24.82
2024-04-25T04:42:43.964Z,24.83
2024-04-25T04:43:44.048Z,24.82
2024-04-25T04:44:44.923Z,24.82
2024-04-25T04:45:48.292Z,24.83
2024-04-25T04:46:44.172Z,24.83
2024-04-25T04:47:44.208Z,24.82
2024-04-25T04:48:44.238Z,24.81
2024-04-25T04:49:44.166Z,24.83
2024-04-25T04:50:44.190Z,24.83
2024-04-25T04:51:44.182Z,24.83
2024-04-25T04:52:44.168Z,24.82
2024-04-25T04:53:44.173Z,24.82
2024-04-25T04:54:44.157Z,24.82
2024-04-25T04:55:44.171Z,24.81
2024-04-25T04:56:44.164Z,24.82
2024-04-25T04:57:44.170Z,24.79
2024-04-25T04:58:44.186Z,24.82
2024-04-25T04:59:44.225Z,24.83
2024-04-25T05:00:44.243Z,24.83
2024-04-25T05:01:44.202Z,24.83
2024-04-25T05:02:44.232Z,24.85
2024-04-25T05:03:44.237Z,24.83
2024-04-25T05:04:44.207Z,24.85
2024-04-25T05:05:44.252Z,24.85
2024-04-25T05:06:44.194Z,24.85
2024-04-25T05:07:44.193Z,24.85
2024-04-25T05:08:44.228Z,24.85
2024-04-25T05:09:44.212Z,24.85
2024-04-25T05:10:44.208Z,24.86
2024-04-25T05:11:44.287Z,24.87
2024-04-25T05:12:44.218Z,24.86
2024-04-25T05:13:44.224Z,24.86
2024-04-25T05:14:44.265Z,24.86
2024-04-25T05:15:44.238Z,24.86
2024-04-25T05:16:44.210Z,24.85
2024-04-25T05:17:44.288Z,24.85
2024-04-25T05:18:44.229Z,24.86
2024-04-25T05:19:44.240Z,24.85
2024-04-25T05:20:44.369Z,24.85
2024-04-25T05:21:44.401Z,24.86
2024-04-25T05:22:44.496Z,24.89
2024-04-25T05:23:45.761Z,24.87
2024-04-25T05:24:44.576Z,24.90
2024-04-25T05:25:44.574Z,24.85
2024-04-25T05:26:44.578Z,24.89
2024-04-25T05:27:44.571Z,24.82
2024-04-25T05:28:44.587Z,24.82
2024-04-25T05:29:44.659Z,24.75
2024-04-25T05:30:44.628Z,24.73
2024-04-25T05:31:44.578Z,24.71
2024-04-25T05:32:44.744Z,24.65
2024-04-25T05:33:44.652Z,24.66
2024-04-25T05:34:44.628Z,24.61
2024-04-25T05:35:44.697Z,24.58
2024-04-25T05:36:44.634Z,24.56
2024-04-25T05:37:44.631Z,24.52
2024-04-25T05:38:44.655Z,24.51
2024-04-25T05:39:44.603Z,24.47
2024-04-25T05:40:44.612Z,24.48
2024-04-25T05:41:44.621Z,24.44
2024-04-25T05:42:44.610Z,24.47
2024-04-25T05:43:44.608Z,24.45
2024-04-25T05:44:44.672Z,24.41
2024-04-25T05:45:44.628Z,24.13
2024-04-25T05:46:44.608Z,24.17
2024-04-25T05:47:44.716Z,24.07
2024-04-25T05:48:44.723Z,24.11
2024-04-25T05:49:44.613Z,24.10
2024-04-25T05:50:44.710Z,24.11
2024-04-25T05:51:44.630Z,24.11
2024-04-25T05:52:44.646Z,24.13
2024-04-25T05:53:44.687Z,24.16
2024-04-25T05:54:44.641Z,24.20
2024-04-25T05:55:46.670Z,24.25
2024-04-25T05:56:44.754Z,24.30
2024-04-25T05:57:44.625Z,24.27
2024-04-25T05:58:44.623Z,24.28
2024-04-25T05:59:44.651Z,24.16
2024-04-25T06:00:44.714Z,24.20
2024-04-25T06:01:44.686Z,24.04
2024-04-25T06:02:44.851Z,24.03
2024-04-25T06:03:44.894Z,24.00
2024-04-25T06:04:44.828Z,23.99
2024-04-25T06:05:44.969Z,23.95
2024-04-25T06:06:44.839Z,23.90
2024-04-25T06:07:44.886Z,23.89
2024-04-25T06:08:45.017Z,23.86
2024-04-25T06:09:44.952Z,23.83
2024-04-25T06:10:45.112Z,23.83
2024-04-25T06:11:45.268Z,23.80
2024-04-25T06:12:45.325Z,23.80
2024-04-25T06:13:45.119Z,23.77
2024-04-25T06:14:45.314Z,23.76
2024-04-25T06:15:45.245Z,23.74
2024-04-25T06:16:45.451Z,23.73
2024-04-25T06:17:45.515Z,23.73
2024-04-25T06:18:45.501Z,23.69
2024-04-25T06:19:45.568Z,23.69
2024-04-25T06:20:45.836Z,23.66
2024-04-25T06:21:45.684Z,23.66
2024-04-25T06:22:45.755Z,23.66
2024-04-25T06:23:45.894Z,23.62
2024-04-25T06:24:45.955Z,23.63
2024-04-25T06:25:46.026Z,23.62
2024-04-25T06:26:46.123Z,23.58
2024-04-25T06:27:46.141Z,23.58
2024-04-25T06:28:46.210Z,23.58
2024-04-25T06:29:46.328Z,23.56
2024-04-25T06:30:46.360Z,23.55
2024-04-25T06:31:46.479Z,23.56
2024-04-25T06:32:46.655Z,23.55
2024-04-25T06:33:46.618Z,23.51
2024-04-25T06:34:46.608Z,23.52
2024-04-25T06:35:46.731Z,23.51
2024-04-25T06:36:46.719Z,23.51
2024-04-25T06:37:48.107Z,23.48
2024-04-25T06:38:46.848Z,23.48
2024-04-25T06:39:46.920Z,23.46
2024-04-25T06:40:46.918Z,23.48
2024-04-25T06:41:53.661Z,23.44
2024-04-25T06:42:47.977Z,23.44
2024-04-25T06:43:46.960Z,23.46
2024-04-25T06:44:53.073Z,23.42
2024-04-25T06:45:47.956Z,23.44
2024-04-25T06:46:46.964Z,23.42
2024-04-25T06:47:47.015Z,23.42
2024-04-25T06:48:47.813Z,23.42
2024-04-25T06:49:46.970Z,23.41
2024-04-25T06:50:47.095Z,23.39
2024-04-25T06:51:46.983Z,23.29
2024-04-25T06:52:46.981Z,23.28
2024-04-25T06:53:46.999Z,23.29
2024-04-25T06:54:46.982Z,23.17
2024-04-25T06:55:47.003Z,23.17
2024-04-25T06:56:47.017Z,23.19
2024-04-25T06:57:46.993Z,23.04
2024-04-25T06:58:47.033Z,23.26
2024-04-25T06:59:48.380Z,23.33
2024-04-25T07:00:47.191Z,23.25
2024-04-25T07:01:47.239Z,23.25
2024-04-25T07:02:47.242Z,23.44
2024-04-25T07:03:47.270Z,23.56
2024-04-25T07:04:47.279Z,23.66
2024-04-25T07:05:47.480Z,23.77
2024-04-25T07:06:47.487Z,23.86
2024-04-25T07:07:47.579Z,23.97
2024-04-25T07:08:47.755Z,24.06
2024-04-25T07:09:47.809Z,24.13
2024-04-25T07:10:47.988Z,24.20
2024-04-25T07:11:48.039Z,24.25
2024-04-25T07:12:48.159Z,24.30
2024-04-25T07:13:48.427Z,24.35
2024-04-25T07:14:48.451Z,24.41
2024-04-25T07:15:48.399Z,24.47
2024-04-25T07:16:48.524Z,24.52
2024-04-25T07:17:48.717Z,24.56
2024-04-25T07:18:48.719Z,24.59
2024-04-25T07:19:48.740Z,24.48
2024-04-25T07:20:48.889Z,24.59
2024-04-25T07:21:48.920Z,24.66
2024-04-25T07:22:49.026Z,24.66
2024-04-25T07:23:49.129Z,24.68
2024-04-25T07:24:49.191Z,24.71
2024-04-25T07:25:49.283Z,24.75
2024-04-25T07:26:49.397Z,24.76
2024-04-25T07:27:49.494Z,24.78
2024-04-25T07:28:49.534Z,24.79
2024-04-25T07:29:49.657Z,24.83
2024-04-25T07:30:49.709Z,24.82
2024-04-25T07:31:49.817Z,24.85
2024-04-25T07:32:49.949Z,24.89
2024-04-25T07:33:50.069Z,24.82
2024-04-25T07:34:50.044Z,24.89
2024-04-25T07:35:50.311Z,24.94
2024-04-25T07:36:50.216Z,24.96
2024-04-25T07:37:50.317Z,24.99
2024-04-25T07:38:50.484Z,25.02
2024-04-25T07:39:50.443Z,25.05
2024-04-25T07:40:50.539Z,25.09
2024-04-25T07:41:50.646Z,25.09
2024-04-25T07:42:50.689Z,25.14
2024-04-25T07:43:50.758Z,25.16
2024-04-25T07:44:50.852Z,25.17
2024-04-25T07:45:50.811Z,25.07
2024-04-25T07:46:50.834Z,25.11
2024-04-25T07:47:51.068Z,25.14
2024-04-25T07:48:50.995Z,25.11
2024-04-25T07:49:50.978Z,25.07
2024-04-25T07:50:51.041Z,24.83
2024-04-25T07:51:51.081Z,24.69
2024-04-25T07:52:51.114Z,24.75
2024-04-25T07:53:51.282Z,24.75
2024-04-25T07:54:51.235Z,24.81
2024-04-25T07:55:51.285Z,24.86
2024-04-25T07:56:51.354Z,24.90
2024-04-25T07:57:51.340Z,24.92
2024-04-25T07:58:51.426Z,24.99
2024-04-25T07:59:51.561Z,25.06
2024-04-25T08:00:51.587Z,25.06
2024-04-25T08:01:51.604Z,25.16
2024-04-25T08:02:51.739Z,25.21
2024-04-25T08:03:51.790Z,25.26
2024-04-25T08:04:51.853Z,25.36
2024-04-25T08:05:52.064Z,25.41
2024-04-25T08:06:51.959Z,25.49
2024-04-25T08:07:52.046Z,25.55
2024-04-25T08:08:52.205Z,25.61
2024-04-25T08:09:52.162Z,25.68
2024-04-25T08:10:52.291Z,25.72
2024-04-25T08:11:52.362Z,25.76
2024-04-25T08:12:52.391Z,25.81
2024-04-25T08:13:52.492Z,25.75
2024-04-25T08:14:52.654Z,25.85
2024-04-25T08:15:52.708Z,25.84
2024-04-25T08:16:52.779Z,25.91
2024-04-25T08:17:52.919Z,25.95
2024-04-25T08:18:52.956Z,25.99
2024-04-25T08:19:53.072Z,26.00
2024-04-25T08:20:53.230Z,26.03
2024-04-25T08:21:53.289Z,26.06
2024-04-25T08:22:53.421Z,26.09
2024-04-25T08:23:53.638Z,26.12
2024-04-25T08:24:53.695Z,26.13
2024-04-25T08:25:53.858Z,26.17
2024-04-25T08:26:54.076Z,26.19
2024-04-25T08:27:54.144Z,26.19
2024-04-25T08:28:54.292Z,26.22
2024-04-25T08:29:54.487Z,26.26
2024-04-25T08:30:54.622Z,26.27
2024-04-25T08:31:54.804Z,26.29
2024-04-25T08:32:55.126Z,26.26
2024-04-25T08:33:55.268Z,26.23
2024-04-25T08:34:55.267Z,26.19
2024-04-25T08:35:55.375Z,26.13
2024-04-25T08:36:55.392Z,26.06
2024-04-25T08:37:55.472Z,26.00
2024-04-25T08:38:55.538Z,25.99
2024-04-25T08:39:55.633Z,25.93
2024-04-25T08:40:55.669Z,25.79
2024-04-25T08:55:26.150Z,23.10
2024-04-25T08:56:26.125Z,23.39
2024-04-25T08:57:26.161Z,23.58
2024-04-25T08:58:26.124Z,23.77
2024-04-25T08:59:26.139Z,23.97
2024-04-25T09:00:26.183Z,24.11
2024-04-25T09:01:26.202Z,24.25
2024-04-25T09:02:26.270Z,24.39
2024-04-25T09:03:26.283Z,24.51
2024-04-25T09:04:26.184Z,24.63
2024-04-25T09:05:26.330Z,24.75
2024-04-25T09:06:29.161Z,24.86
2024-04-25T09:07:26.392Z,24.94
2024-04-25T09:08:26.453Z,25.07
2024-04-25T09:09:26.396Z,25.16
2024-04-25T09:10:26.392Z,25.26
2024-04-25T09:11:26.662Z,25.33
2024-04-25T09:12:26.471Z,25.44
2024-04-25T09:13:26.467Z,25.51
2024-04-25T09:14:26.469Z,25.60
2024-04-25T09:15:26.440Z,25.67
2024-04-25T09:16:26.511Z,25.71
2024-04-25T09:17:26.463Z,25.79
2024-04-25T09:18:26.493Z,25.88
2024-04-25T09:19:26.437Z,25.93
2024-04-25T09:20:26.433Z,25.97
2024-04-25T09:21:26.429Z,26.03
2024-04-25T09:22:26.415Z,26.07
2024-04-25T09:23:26.444Z,26.13
2024-04-25T09:24:26.435Z,26.19
2024-04-25T09:25:26.446Z,26.24
2024-04-25T09:26:26.486Z,26.26
2024-04-25T09:27:26.454Z,26.29
2024-04-25T09:28:26.428Z,26.33
2024-04-25T09:29:26.436Z,26.39
2024-04-25T09:30:26.439Z,26.40
2024-04-25T09:31:26.452Z,26.43
2024-04-25T09:32:26.496Z,26.47
2024-04-25T09:33:26.514Z,26.51
2024-04-25T09:34:26.417Z,26.51
2024-04-25T09:35:26.474Z,26.55
2024-04-25T09:36:26.484Z,26.57
2024-04-25T09:37:26.433Z,26.60
2024-04-25T09:38:26.503Z,26.64
2024-04-25T09:39:26.563Z,26.60
2024-04-25T09:40:26.745Z,26.65
2024-04-25T09:41:26.781Z,26.70
2024-04-25T09:42:26.847Z,26.73
2024-04-25T09:43:26.922Z,26.77
2024-04-25T09:44:27.302Z,26.79
2024-04-25T09:45:27.128Z,26.81
2024-04-25T09:46:27.230Z,26.75
2024-04-25T09:47:27.335Z,26.78
2024-04-25T09:48:27.382Z,26.73
2024-04-25T09:49:27.464Z,26.77
2024-04-25T09:50:27.650Z,26.82
2024-04-25T09:51:27.633Z,26.84
2024-04-25T09:52:27.749Z,26.81
2024-04-25T09:53:27.899Z,26.82
2024-04-25T09:54:27.919Z,26.78
2024-04-25T09:55:28.019Z,26.81
2024-04-25T09:56:28.156Z,26.82
2024-04-25T09:57:28.203Z,26.84
2024-04-25T09:58:28.316Z,26.87
2024-04-25T09:59:28.425Z,26.88
2024-04-25T10:00:28.460Z,26.89
2024-04-25T10:01:28.546Z,26.89
2024-04-25T10:02:28.695Z,26.88
2024-04-25T10:03:28.705Z,26.91
2024-04-25T10:04:29.672Z,26.91
2024-04-25T10:05:28.892Z,26.91
2024-04-25T10:06:28.859Z,26.91
2024-04-25T10:07:28.954Z,26.92
2024-04-25T10:08:28.923Z,26.97
2024-04-25T10:09:29.004Z,26.97
2024-04-25T10:10:29.078Z,26.95
2024-04-25T10:11:29.288Z,26.98
2024-04-25T10:12:29.142Z,26.98
2024-04-25T10:13:29.212Z,26.74
2024-04-25T10:14:29.459Z,26.37
2024-04-25T10:15:29.422Z,25.51
2024-04-25T10:16:29.488Z,25.71
2024-04-25T10:17:29.744Z,25.27
2024-04-25T10:18:29.998Z,25.20
2024-04-25T10:19:29.871Z,25.09
2024-04-25T10:20:29.983Z,25.06
2024-04-25T10:21:30.055Z,25.06
2024-04-25T10:22:32.434Z,25.06
2024-04-25T10:23:30.129Z,25.13
2024-04-25T10:24:30.106Z,25.20
2024-04-25T10:25:30.123Z,25.26
2024-04-25T10:26:30.946Z,25.31
2024-04-25T10:27:30.132Z,25.41
2024-04-25T10:28:30.111Z,25.49
2024-04-25T10:29:30.174Z,25.58
2024-04-25T10:30:30.123Z,25.65
2024-04-25T10:31:30.118Z,25.74
2024-04-25T10:32:30.217Z,25.81
2024-04-25T10:33:30.205Z,25.86
2024-04-25T10:34:30.137Z,25.93
2024-04-25T10:35:30.113Z,26.00
2024-04-25T10:36:30.156Z,26.06
2024-04-25T10:37:30.108Z,26.12
2024-04-25T10:38:30.163Z,26.19
2024-04-25T10:39:30.135Z,26.23
2024-04-25T10:40:30.123Z,26.23
2024-04-25T10:41:30.170Z,26.19
2024-04-25T10:42:30.143Z,26.24
2024-04-25T10:43:30.158Z,26.15
2024-04-25T10:44:30.210Z,26.03
2024-04-25T10:45:30.289Z,25.93
2024-04-25T10:46:30.220Z,25.65
2024-04-25T10:47:30.272Z,25.41
2024-04-25T10:48:30.405Z,25.28
2024-04-25T10:49:30.234Z,25.02
2024-04-25T10:50:30.224Z,25.07
2024-04-25T10:51:31.228Z,25.09
2024-04-25T10:52:30.217Z,25.13
2024-04-25T10:53:30.207Z,25.19
2024-04-25T10:54:30.221Z,25.26
2024-04-25T10:55:30.222Z,25.34
2024-04-25T10:56:30.205Z,25.37
2024-04-25T10:57:30.235Z,25.44
2024-04-25T10:58:30.195Z,25.52
2024-04-25T10:59:30.905Z,25.61
2024-04-25T11:00:30.212Z,25.69
2024-04-25T11:01:30.238Z,25.76
2024-04-25T11:02:30.252Z,25.82
2024-04-25T11:03:30.297Z,25.92
2024-04-25T11:04:30.281Z,25.96
2024-04-25T11:05:30.383Z,26.03
2024-04-25T11:06:30.355Z,26.10
2024-04-25T11:07:30.466Z,26.16
2024-04-25T11:08:30.558Z,26.19
2024-04-25T11:09:30.639Z,26.29
2024-04-25T11:10:30.733Z,26.34
2024-04-25T11:11:31.008Z,26.41
2024-04-25T11:12:30.947Z,26.43
2024-04-25T11:13:31.082Z,26.48
2024-04-25T11:14:31.202Z,26.54
2024-04-25T11:15:31.260Z,26.61
2024-04-25T11:16:31.377Z,26.65
2024-04-25T11:17:37.229Z,26.70
2024-04-25T11:18:33.889Z,26.74
2024-04-25T11:19:33.284Z,26.77
2024-04-25T11:20:31.751Z,26.84
2024-04-25T11:21:31.604Z,26.87
2024-04-25T11:22:41.746Z,26.92
2024-04-25T11:23:32.572Z,26.99
2024-04-25T11:24:31.594Z,27.02
2024-04-25T11:25:31.510Z,27.06
2024-04-25T11:26:31.565Z,27.02
2024-04-25T11:27:31.515Z,27.06
2024-04-25T11:28:31.530Z,26.87
2024-04-25T11:29:31.576Z,26.97
2024-04-25T11:30:31.626Z,26.88
2024-04-25T11:31:31.549Z,26.97
2024-04-25T11:32:31.734Z,26.99
2024-04-25T11:33:31.640Z,27.03
2024-04-25T11:34:31.634Z,27.02
2024-04-25T11:35:31.957Z,27.02
2024-04-25T11:36:32.020Z,26.99
2024-04-25T11:37:31.951Z,26.92
2024-04-25T11:38:32.032Z,26.87
2024-04-25T11:39:32.130Z,26.73
2024-04-25T11:40:32.159Z,26.58
2024-04-25T11:41:32.289Z,26.43
2024-04-25T11:42:32.306Z,26.26
2024-04-25T11:43:32.442Z,26.10
2024-04-25T11:44:32.506Z,25.99
2024-04-25T11:45:35.344Z,25.88
2024-04-25T11:46:32.621Z,25.79
2024-04-25T11:47:32.608Z,25.72
2024-04-25T11:48:32.673Z,25.62
2024-04-25T11:49:32.592Z,25.57
2024-04-25T11:50:32.600Z,25.55
2024-04-25T11:51:32.607Z,25.55
2024-04-25T11:52:32.607Z,25.58
2024-04-25T11:53:32.625Z,25.58
2024-04-25T11:54:32.626Z,25.64
2024-04-25T11:55:32.730Z,25.67
2024-04-25T11:56:32.656Z,25.69
2024-04-25T11:57:32.651Z,25.75
2024-04-25T11:58:32.653Z,25.79
2024-04-25T11:59:32.675Z,25.85
2024-04-25T12:00:32.614Z,25.92
2024-04-25T12:01:32.629Z,25.96
2024-04-25T12:02:32.650Z,25.99
2024-04-25T12:03:32.642Z,26.00
2024-04-25T12:04:32.755Z,26.06
2024-04-25T12:05:32.746Z,26.10
2024-04-25T12:06:32.663Z,26.16
2024-04-25T12:07:32.672Z,26.20
2024-04-25T12:08:32.711Z,26.23
2024-04-25T12:09:33.684Z,26.27
2024-04-25T12:10:32.696Z,26.33
2024-04-25T12:11:32.677Z,26.36
2024-04-25T12:12:32.779Z,26.40
2024-04-25T12:13:32.681Z,26.41
2024-04-25T12:14:32.703Z,26.43
2024-04-25T12:15:32.730Z,26.44
2024-04-25T12:16:32.772Z,26.44
2024-04-25T12:17:33.878Z,26.44
2024-04-25T12:18:32.780Z,26.44
2024-04-25T12:19:32.743Z,26.48
2024-04-25T12:20:32.746Z,26.47
2024-04-25T12:21:32.708Z,26.48
2024-04-25T12:22:32.717Z,26.50
2024-04-25T12:23:32.764Z,26.50
2024-04-25T12:24:32.737Z,26.52
2024-04-25T12:25:32.732Z,26.50
2024-04-25T12:26:32.791Z,26.54
2024-04-25T12:27:32.901Z,26.54
2024-04-25T12:28:34.749Z,26.55
2024-04-25T12:29:33.040Z,26.55
2024-04-25T12:30:38.907Z,26.58
2024-04-25T12:31:33.042Z,26.62
2024-04-25T12:32:33.119Z,26.61
2024-04-25T12:33:33.208Z,26.61
2024-04-25T12:34:33.073Z,26.62
2024-04-25T12:35:33.095Z,26.64
2024-04-25T12:37:35.370Z,26.65
2024-04-25T12:38:35.476Z,26.68
2024-04-25T12:39:35.325Z,26.67
2024-04-25T12:40:35.327Z,26.70
2024-04-25T12:41:35.390Z,26.74
2024-04-25T12:42:35.349Z,26.73
2024-04-25T12:43:35.359Z,26.73
2024-04-25T12:44:35.388Z,26.78
2024-04-25T12:45:37.483Z,26.78
2024-04-25T12:46:35.544Z,26.79
2024-04-25T12:47:35.728Z,26.84
2024-04-25T12:48:35.822Z,26.84
2024-04-25T12:49:35.715Z,26.87
2024-04-25T12:50:35.800Z,26.84
2024-04-25T12:51:35.809Z,26.87
2024-04-25T12:52:35.908Z,26.92
2024-04-25T12:53:35.919Z,26.92
2024-04-25T12:54:35.951Z,26.94
2024-04-25T12:55:35.998Z,26.94
2024-04-25T12:56:36.156Z,26.99
2024-04-25T12:57:36.127Z,26.98
2024-04-25T12:58:36.125Z,27.01
2024-04-25T12:59:36.201Z,27.01
2024-04-25T13:00:36.279Z,27.02
2024-04-25T13:01:36.270Z,27.06
2024-04-25T13:02:36.385Z,27.09
2024-04-25T13:03:36.386Z,27.09
2024-04-25T13:04:36.460Z,27.12
2024-04-25T13:05:36.508Z,27.13
2024-04-25T13:06:36.484Z,27.17
2024-04-25T13:07:36.536Z,27.17